Terminal Aerodrome Forecast
Issued by NWS Jacksonville, FL

Home | Current Version | Previous Version | Text Only | Print | Product List | Glossary On
Versions: 1 2 3 4 5 6 7 8 9 10 11 12 13 14 15
297
FTUS42 KJAX 180545
TAFGNV
TAF
KGNV 180545Z 1806/1906 20002KT P6SM SCT030 BKN250
     FM180800 20002KT 5SM BR SCT006 BKN012
      TEMPO 1810/1813 1SM BR OVC005
     FM181600 25005KT P6SM SCT025 BKN035
     FM190200 23003KT 3SM BR SCT005 BKN010=

USA.gov is the U.S. government's official web portal to all federal, state and local government web resources and services.